MSH weather

Masirah Air Base
Masirah, Ash Sharqlyah Governorate, Oman

Public forecast

Using degrees Celsius for public forecast. Weather courtesy of forecast.io.

METAR (pilot weather report)

Report is more than 6 hours old.

Retrieved 2010/07/23 10:00 UTC (9 years ago):

OOMA 231000Z 31004KT CAVOK 45/15 Q0996 A2941

TAF (pilot weather forecast)

Forecast is more than 12 hours old.

Closest forecast is Saiq Airport, 159.4 nm (295.1 km) NNW. Retrieved 2011/03/16 12:42 UTC (8 years ago):

TAF TAF OOSQ 161115Z 1612/1712 01012KT CAVOK